Terminal Aerodrome Forecast
Issued by NWS

Home | Current Version | Previous Version | Text Only | Print | Product List | Glossary On
Versions: 1 2 3 4 5 6 7 8 9 10 11 12 13 14 15
019
FTAK31 PAJN 301737
TAFAKT
TAF
PAKT 301737Z 3018/0118 34007KT P6SM SCT025 BKN080
      TEMPO 3018/3020 BKN025
     FM302000 VRB04KT P6SM VCSH BKN030 OVC060
     FM302200 VRB05KT P6SM -SHRA BKN025 OVC040
     FM010300 VRB05KT P6SM VCSH BKN030 BKN060
     FM010900 15007KT P6SM -SHRA BKN025 OVC040
     FM011500 15006KT P6SM VCSH BKN030 BKN060
      AMD LTD TO CLD VIS AND WIND 0106/0115=

USA.gov is the U.S. government's official web portal to all federal, state and local government web resources and services.